Latest Coastal Weather Observations for Portland Airport

IDS60701

Issued at 6:51 pm CDT Sunday 22 October 2017 (issued every 10 minutes, with the page automatically refreshed every 10 minutes)

About coastal observations | Map of coastal stations | Coastal observations for SA | Marine services | Other Formats
Station Details ID: 090171 Name: CASHMORE AIRPORT Lat: -38.31 Lon: 141.47 Height: 80.9 m
Data from the previous 72 hours. | See also: Recent months at Portland Airport
Date/Time
CDT
Temp
°C
Wind Pressure Rain since
9am
mm
Weather Cloud Vis
km
Sea
Height
m
Swell
Dir  Spd
kts
Gust
kts
hPa Trend Height
m
Period
s
Dir
22/06:30pm 12.4 SW 6 9 1020.0 - 0.0 - Partly cloudy 10 - - - -
22/06:00pm 12.8 SSW 8 11 1019.8 - 0.0 - Partly cloudy 10 - - - -
22/05:30pm 12.9 SSW 8 12 1019.9 - 0.0 - Cloudy 10 - - - -
22/05:12pm 13.2 SSW 8 12 1019.7 - 0.0 - Partly cloudy 10 - - - -
22/05:00pm 13.4 SSW 9 14 1019.7 - 0.0 - Partly cloudy 10 - - - -
22/04:48pm 12.9 SW 7 10 1019.7 - 0.0 - Partly cloudy 10 - - - -
22/04:30pm 12.8 SSW 9 13 1019.6 - 0.0 - Partly cloudy 10 - - - -
22/04:00pm 13.7 SW 10 13 1019.6 - 0.0 - Partly cloudy 10 - - - -
22/03:30pm 14.3 SW 8 11 1019.6 - 0.0 - Cloudy 10 - - - -
22/03:00pm 13.5 SSW 9 12 1019.6 - 0.0 - Cloudy 10 - - - -
22/02:30pm 13.7 SSW 9 12 1019.6 - 0.0 - Cloudy 10 - - - -
22/02:15pm 14.6 SW 9 13 1019.8 - 0.0 - Partly cloudy 10 - - - -
22/02:00pm 14.1 SSW 7 11 1020.0 - 0.0 - Partly cloudy 10 - - - -
22/01:34pm 13.5 SW 11 18 1020.0 - 0.0 - Partly cloudy 10 - - - -
22/01:30pm 13.8 SW 11 15 1019.9 - 0.0 - Partly cloudy 10 - - - -
22/01:00pm 13.5 SW 9 13 1020.4 - 0.0 - Cloudy 10 - - - -
22/12:38pm 13.6 SSW 8 12 1020.5 - 0.0 - Cloudy 10 - - - -
22/12:30pm 13.2 SW 9 14 1020.5 - 0.0 - Cloudy 10 - - - -
22/12:19pm 13.7 SW 8 13 1020.5 - 0.0 - Partly cloudy 10 - - - -
22/12:00pm 13.6 SSW 8 13 1020.6 - 0.0 - Partly cloudy 10 - - - -
22/11:30am 13.2 SW 9 16 1020.6 - 0.0 - Cloudy 10 - - - -
22/11:00am 13.0 SSW 9 16 1020.8 - 0.0 - Cloudy 10 - - - -
22/10:30am 13.4 SW 9 14 1020.9 - 0.0 - Partly cloudy 10 - - - -
22/10:18am 12.8 SW 9 14 1021.0 - 0.0 - Partly cloudy 10 - - - -
22/10:00am 13.1 SW 10 14 1020.9 - 0.0 - Partly cloudy 10 - - - -
22/09:58am 13.0 SW 10 15 1020.9 - 0.0 - Partly cloudy 10 - - - -
22/09:30am 12.8 SW 10 17 1020.9 - 0.0 - Partly cloudy 10 - - - -
22/09:19am 12.5 WSW 10 14 1020.8 - 0.0 - Partly cloudy 10 - - - -
22/09:05am 12.7 SW 9 13 1020.7 - 0.0 - Partly cloudy 10 - - - -
22/09:00am 12.4 SW 8 13 1020.7 - 0.0 - Partly cloudy 10 - - - -
22/08:30am 11.6 SW 7 15 1020.7 - 0.4 - Cloudy 10 - - - -
22/08:00am 11.6 SW 10 15 1020.6 - 0.4 - Partly cloudy 10 - - - -
22/07:30am 11.5 SW 8 13 1020.4 - 0.4 - Partly cloudy 10 - - - -
22/07:13am 11.2 WSW 7 9 1020.1 - 0.4 - Partly cloudy 10 - - - -
22/07:00am 11.2 WSW 7 10 1020.1 - 0.4 - Partly cloudy 5 - - - -
22/06:56am 11.2 WSW 7 9 1020.1 - 0.4 - Partly cloudy 5 - - - -
22/06:52am 11.1 WSW 8 10 1020.0 - 0.4 - Partly cloudy 10 - - - -
22/06:34am 11.0 WSW 7 10 1020.0 - 0.2 - Partly cloudy 6 - - - -
22/06:30am 10.9 WSW 8 10 1020.0 - 0.2 - Partly cloudy 10 - - - -
22/06:19am 10.7 WSW 7 10 1019.8 - 0.2 - Partly cloudy 10 - - - -
22/06:00am 10.5 WSW 7 9 1019.7 - 0.2 - Partly cloudy 10 - - - -
22/05:47am 10.6 WSW 6 9 1019.8 - 0.2 - Partly cloudy 10 - - - -
22/05:39am 10.5 WSW 6 9 1019.8 - 0.2 - Partly cloudy 10 - - - -
22/05:30am 10.6 WSW 7 10 1019.7 - 0.2 - Cloudy 7 - - - -
22/05:09am 10.5 WSW 7 10 1019.8 - 0.2 - Partly cloudy 6 - - - -
22/05:04am 10.4 WSW 6 9 1019.8 - 0.2 - Partly cloudy 10 - - - -
22/05:00am 10.3 WSW 7 9 1019.8 - 0.2 - Partly cloudy 10 - - - -
22/04:51am 10.4 SW 6 8 1019.8 - 0.2 - Partly cloudy 10 - - - -
22/04:40am 10.4 SW 7 9 1019.8 - 0.2 - Partly cloudy 10 - - - -
22/04:30am 10.6 SW 7 12 1019.9 - 0.2 - Partly cloudy 6 - - - -
22/04:19am 10.9 SW 9 13 1019.9 - 0.0 - Partly cloudy 6 - - - -
22/04:00am 11.1 WSW 7 9 1020.0 - 0.0 - Partly cloudy 10 - - - -
22/03:30am 10.9 SW 7 9 1020.2 - 0.0 - Cloudy 10 - - - -
22/03:00am 10.9 SW 9 13 1020.5 - 0.0 - Cloudy 10 - - - -
22/02:30am 10.7 WSW 10 15 1020.7 - 0.0 - Cloudy 10 - - - -
22/02:00am 10.4 WSW 10 15 1020.9 - 0.0 - Cloudy 10 - - - -
22/01:30am 10.1 SW 9 13 1021.3 - 0.0 - Partly cloudy 10 - - - -
22/01:00am 10.3 WSW 9 15 1022.0 - 0.0 - Partly cloudy 10 - - - -
22/12:55am 10.1 WSW 9 11 1022.1 - 0.0 - Partly cloudy 10 - - - -
22/12:40am 10.7 WSW 8 12 1022.2 - 0.0 - Partly cloudy 10 - - - -
22/12:30am 11.0 SW 7 10 1022.3 - 0.0 - Partly cloudy 10 - - - -
22/12:00am 11.3 SW 8 12 1022.5 - 0.0 - Partly cloudy 10 - - - -
 
Date/Time
CDT
Temp
°C
Wind Pressure Rain since
9am
mm
Weather Cloud Vis
km
Sea
Height
m
Swell
Dir  Spd
kts
Gust
kts
hPa Trend Height
m
Period
s
Dir
21/11:30pm 11.1 SW 9 15 1022.6 - 0.0 - Mostly cloudy 10 - - - -
21/11:00pm 10.9 WSW 11 15 1022.8 - 0.0 - Partly cloudy 10 - - - -
21/10:30pm 11.0 SW 10 15 1023.2 - 0.0 - Partly cloudy 10 - - - -
21/10:00pm 10.7 WSW 8 13 1023.3 - 0.0 - Partly cloudy 10 - - - -
21/09:30pm 10.7 SW 9 12 1023.6 - 0.0 - Partly cloudy 10 - - - -
21/09:00pm 10.6 WSW 12 18 1023.6 - 0.0 - Partly cloudy 10 - - - -
21/08:30pm 10.9 WSW 11 15 1023.8 - 0.0 - Cloudy 10 - - - -
21/08:00pm 11.3 WSW 11 15 1023.8 - 0.0 - Partly cloudy 10 - - - -
21/07:30pm 11.7 WSW 8 12 1023.7 - 0.0 - Cloudy 10 - - - -
21/07:00pm 11.6 WSW 8 12 1023.7 - 0.0 - Partly cloudy 10 - - - -
21/06:30pm 11.9 WSW 11 15 1023.7 - 0.0 - Partly cloudy 10 - - - -
21/06:00pm 12.1 WSW 11 17 1023.8 - 0.0 - Partly cloudy 10 - - - -
21/05:30pm 12.0 WSW 10 15 1023.9 - 0.0 - Cloudy 10 - - - -
21/05:00pm 11.7 WSW 10 15 1024.2 - 0.0 - Partly cloudy 10 - - - -
21/04:30pm 12.2 WSW 14 20 1024.3 - 0.0 - Partly cloudy 10 - - - -
21/04:00pm 12.2 WSW 13 16 1024.6 - 0.0 - Partly cloudy 10 - - - -
21/03:30pm 11.6 WSW 12 19 1025.0 - 0.0 - Partly cloudy 10 - - - -
21/03:00pm 12.5 WSW 14 21 1025.3 - 0.0 - Partly cloudy 10 - - - -
21/02:50pm 12.6 WSW 16 21 1025.3 - 0.0 - Partly cloudy 10 - - - -
21/02:38pm 12.0 WSW 13 21 1025.5 - 0.0 - Partly cloudy 10 - - - -
21/02:30pm 12.1 W 12 16 1025.6 - 0.0 - Cloudy 10 - - - -
21/02:19pm 12.5 WSW 12 16 1025.7 - 0.0 - Partly cloudy 10 - - - -
21/02:01pm 11.8 WSW 17 22 1025.9 - 0.0 - Partly cloudy 6 - - - -
21/02:00pm 12.0 WSW 17 22 1025.9 - 0.0 - Partly cloudy 8 - - - -
21/01:30pm 13.5 WSW 14 19 1025.8 - 0.0 - Partly cloudy 10 - - - -
21/01:00pm 12.7 W 13 19 1026.0 - 0.0 - Partly cloudy 10 - - - -
21/12:30pm 13.0 WSW 13 17 1026.4 - 0.0 - Partly cloudy 10 - - - -
21/12:00pm 12.8 WSW 11 15 1026.8 - 0.0 - Partly cloudy 10 - - - -
21/11:30am 12.4 WSW 12 19 1027.2 - 0.0 - Cloudy 10 - - - -
21/11:00am 12.1 WSW 11 15 1027.5 - 0.0 - Partly cloudy 10 - - - -
21/10:30am 12.5 WSW 10 14 1027.8 - 0.0 - Partly cloudy 10 - - - -
21/10:00am 12.1 WSW 9 12 1028.0 - 0.0 - Partly cloudy 10 - - - -
21/09:30am 11.7 SW 9 13 1028.0 - 0.0 - Partly cloudy 10 - - - -
21/09:00am 11.1 WSW 9 15 1028.0 - 0.0 - Cloudy 10 - - - -
21/08:30am 10.8 WSW 7 9 1028.1 - 0.0 - Cloudy 10 - - - -
21/08:00am 10.8 WSW 7 12 1027.9 - 0.0 - Partly cloudy 10 - - - -
21/07:30am 10.8 SW 8 16 1027.7 - 0.0 - Cloudy 10 - - - -
21/07:00am 10.6 SW 8 10 1027.6 - 0.0 - Cloudy 10 - - - -
21/06:30am 10.5 WSW 6 8 1027.7 - 0.0 - Cloudy 10 - - - -
21/06:00am 10.5 WSW 7 10 1027.7 - 0.0 - Cloudy 10 - - - -
21/05:30am 10.5 SW 7 11 1027.7 - 0.0 - Cloudy 10 - - - -
21/05:00am 10.5 SW 5 7 1027.7 - 0.0 - Cloudy 10 - - - -
21/04:30am 10.6 SW 7 11 1027.9 - 0.0 - Cloudy 10 - - - -
21/04:00am 10.8 SW 8 11 1028.0 - 0.0 - Partly cloudy 10 - - - -
21/03:30am 10.7 SW 8 12 1028.2 - 0.0 - Cloudy 10 - - - -
21/03:00am 10.7 SW 8 12 1028.4 - 0.0 - Cloudy 10 - - - -
21/02:30am 10.9 SW 8 12 1028.6 - 0.0 - Cloudy 10 - - - -
21/02:00am 11.1 SW 9 13 1028.8 - 0.0 - Cloudy 10 - - - -
21/01:30am 11.1 SW 5 8 1029.2 - 0.0 - Cloudy 10 - - - -
21/01:00am 11.1 SW 8 13 1029.7 - 0.0 - Cloudy 10 - - - -
21/12:30am 11.0 SW 7 10 1030.1 - 0.0 - Cloudy 10 - - - -
21/12:00am 10.9 SW 7 9 1030.1 - 0.0 - Cloudy 10 - - - -
 
Date/Time
CDT
Temp
°C
Wind Pressure Rain since
9am
mm
Weather Cloud Vis
km
Sea
Height
m
Swell
Dir  Spd
kts
Gust
kts
hPa Trend Height
m
Period
s
Dir
20/11:30pm 10.8 SW 6 8 1030.4 - 0.0 - Cloudy 10 - - - -
20/11:00pm 10.7 WSW 6 8 1030.7 - 0.0 - Cloudy 10 - - - -
20/10:30pm 10.8 SW 5 8 1030.9 - 0.0 - Cloudy 10 - - - -
20/10:00pm 10.8 SW 6 9 1031.1 - 0.0 - Cloudy 10 - - - -
20/09:30pm 11.1 SSW 7 11 1031.1 - 0.0 - Cloudy 10 - - - -
20/09:00pm 11.0 S 5 8 1031.1 - 0.0 - Cloudy 10 - - - -
20/08:30pm 11.2 SSW 6 10 1031.2 - 0.0 - Cloudy 10 - - - -
20/08:00pm 10.9 SSW 6 9 1031.1 - 0.0 - Cloudy 10 - - - -
20/07:30pm 10.9 SW 8 12 1031.0 - 0.0 - Cloudy 10 - - - -
20/07:00pm 11.1 SSW 7 12 1030.7 - 0.0 - Cloudy 10 - - - -
20/06:30pm 11.2 SW 8 11 1030.7 - 0.0 - Cloudy 10 - - - -
20/06:00pm 11.4 SSW 7 11 1030.7 - 0.0 - Cloudy 10 - - - -
20/05:30pm 11.4 SSW 8 13 1030.7 - 0.0 - Cloudy 10 - - - -
20/05:00pm 11.9 SSW 8 11 1030.6 - 0.0 - Cloudy 10 - - - -
20/04:30pm 11.9 SSW 9 13 1030.5 - 0.0 - Cloudy 10 - - - -
20/04:00pm 12.0 SSW 10 16 1030.5 - 0.0 - Cloudy 10 - - - -
20/03:30pm 12.4 SSW 9 13 1030.6 - 0.0 - Cloudy 10 - - - -
20/03:00pm 12.8 SSW 10 15 1030.7 - 0.0 - Partly cloudy 10 - - - -
20/02:30pm 13.1 SW 10 16 1030.8 - 0.0 - Mostly cloudy 10 - - - -
20/02:00pm 12.9 SSW 11 19 1030.9 - 0.0 - Cloudy 10 - - - -
20/01:30pm 13.1 SSW 10 16 1030.8 - 0.0 - Partly cloudy 10 - - - -
20/01:00pm 12.1 SSW 11 17 1030.8 - 0.0 - Partly cloudy 10 - - - -
20/12:30pm 12.9 SSW 9 15 1030.8 - 0.0 - Partly cloudy 10 - - - -
20/12:00pm 13.4 SSW 11 17 1030.8 - 0.0 - Cloudy 10 - - - -
20/11:30am 13.2 SSW 10 15 1030.8 - 0.0 - Cloudy 10 - - - -
20/11:00am 12.6 SSW 10 15 1030.8 - 0.0 - Partly cloudy 10 - - - -
20/10:30am 13.2 SSW 11 19 1030.7 - 0.0 - Partly cloudy 10 - - - -
20/10:00am 13.2 SSW 11 20 1030.4 - 0.0 - Partly cloudy 10 - - - -
20/09:30am 12.4 SSW 10 18 1030.1 - 0.0 - Partly cloudy 10 - - - -
20/09:00am 12.6 SSW 10 15 1029.7 - 0.0 - Partly cloudy 10 - - - -
20/08:30am 12.1 SSW 9 13 1029.4 - 0.0 - Cloudy 10 - - - -
20/08:00am 12.1 SSW 10 16 1029.0 - 0.0 - Partly cloudy 10 - - - -
20/07:30am 11.5 SSW 9 14 1028.7 - 0.0 - Partly cloudy 10 - - - -
20/07:00am 11.1 SSW 8 12 1028.2 - 0.0 - Partly cloudy 10 - - - -
20/06:30am 10.8 SW 8 13 1027.7 - 0.0 - Partly cloudy 10 - - - -
20/06:00am 10.7 SSW 9 14 1027.3 - 0.0 - Partly cloudy 10 - - - -
20/05:30am 10.5 SW 9 14 1026.8 - 0.0 - Partly cloudy 10 - - - -
20/05:00am 10.6 SW 8 13 1026.4 - 0.0 - Partly cloudy 10 - - - -
20/04:30am 10.9 SSW 9 16 1026.2 - 0.0 - Partly cloudy 10 - - - -
20/04:00am 10.9 SW 10 17 1026.1 - 0.0 - Partly cloudy 10 - - - -
20/03:30am 10.9 SW 10 14 1025.8 - 0.0 - Partly cloudy 10 - - - -
20/03:00am 11.0 SW 9 15 1025.7 - 0.0 - Partly cloudy 10 - - - -
20/02:30am 11.0 SW 10 14 1025.7 - 0.0 - Partly cloudy 10 - - - -
20/02:00am 11.3 SW 11 16 1025.6 - 0.0 - Partly cloudy 10 - - - -
20/01:30am 11.7 SW 11 17 1025.6 - 0.0 - Partly cloudy 10 - - - -
20/01:00am 11.4 WSW 10 14 1025.6 - 0.0 - Partly cloudy 10 - - - -
20/12:30am 12.0 WSW 10 18 1025.3 - 0.0 - Partly cloudy 10 - - - -
20/12:00am 11.7 WSW 9 16 1025.1 - 0.0 - Partly cloudy 10 - - - -
 
Date/Time
CDT
Temp
°C
Wind Pressure Rain since
9am
mm
Weather Cloud Vis
km
Sea
Height
m
Swell
Dir  Spd
kts
Gust
kts
hPa Trend Height
m
Period
s
Dir
19/11:30pm 11.5 WSW 14 21 1024.9 - 0.0 - Mostly clear 10 - - - -
19/11:00pm 11.8 WSW 12 19 1024.6 - 0.0 - Partly cloudy 10 - - - -
19/10:30pm 11.7 WSW 14 20 1024.3 - 0.0 - Partly cloudy 10 - - - -
19/10:01pm 13.1 WSW 15 26 1023.9 - 0.0 - Partly cloudy 10 - - - -
19/10:00pm 13.1 WSW 15 20 1023.9 - 0.0 - Partly cloudy 10 - - - -
19/09:30pm 12.9 W 13 17 1024.0 - 0.0 - Partly cloudy 10 - - - -
19/09:00pm 12.8 W 14 19 1023.8 - 0.0 - Partly cloudy 10 - - - -
19/08:30pm 12.8 W 16 22 1023.2 - 0.0 - Partly cloudy 10 - - - -
19/08:00pm 12.9 W 15 21 1022.7 - 0.0 - Partly cloudy 10 - - - -
19/07:30pm 12.9 W 15 21 1022.3 - 0.0 - Partly cloudy 10 - - - -
19/07:00pm 13.2 W 18 24 1021.7 - 0.0 - Partly cloudy 10 - - - -
19/06:30pm 13.9 W 17 25 1021.3 - 0.0 - Partly cloudy 10 - - - -

Other Formats:

Comma delimited format used in spreadsheet applications
http://www.bom.gov.au/fwo/IDS60701/IDS60701.94828.axf

JavaScript Object Notation format (JSON) in row-major order
http://www.bom.gov.au/fwo/IDS60701/IDS60701.94828.json